FLUGWETTER MÜNCHEN AIRPORT

[source: ADDS]
METAR
EDDM 270620Z 32001KT CAVOK M03/M03 Q1012 NOSIG =
TAF
TAF EDDM 270500Z 2706/2812 15004KT CAVOK BECMG 2719/2721 23008KT TEMPO 2803/2812 RA =
SR / SS: 05:57 / 16:56 UTC (Tag 2017-02-27)

QR-Code dieser Seite

QR-Code dieser Seite